createdAt,value
2022-12-03T00:01:05.698Z,16.40
2022-12-03T00:03:35.994Z,17.38
2022-12-03T00:06:04.096Z,16.48
2022-12-03T00:08:34.879Z,16.58
2022-12-03T00:11:03.153Z,16.15
2022-12-03T00:13:32.600Z,16.65
2022-12-03T00:16:00.646Z,15.98
2022-12-03T00:18:28.672Z,18.00
2022-12-03T00:20:56.891Z,17.75
2022-12-03T00:23:25.300Z,17.67
2022-12-03T00:25:53.258Z,19.38
2022-12-03T00:28:21.229Z,15.85
2022-12-03T00:30:54.271Z,16.35
2022-12-03T00:33:23.014Z,17.33
2022-12-03T00:35:51.041Z,17.55
2022-12-03T00:38:18.981Z,17.55
2022-12-03T00:40:47.246Z,15.43
2022-12-03T00:43:15.362Z,20.73
2022-12-03T00:45:43.343Z,19.50
2022-12-03T00:48:12.651Z,15.63
2022-12-03T00:50:40.572Z,17.48
2022-12-03T00:53:08.522Z,19.33
2022-12-03T00:55:36.388Z,18.23
2022-12-03T00:58:04.445Z,14.50
2022-12-03T01:00:32.398Z,15.35
2022-12-03T01:03:00.683Z,15.40
2022-12-03T01:06:01.477Z,18.15
2022-12-03T01:08:31.168Z,16.65
2022-12-03T01:10:59.250Z,16.50
2022-12-03T01:13:27.213Z,17.48
2022-12-03T01:15:55.286Z,18.17
2022-12-03T01:18:23.522Z,15.90
2022-12-03T01:20:51.443Z,16.98
2022-12-03T01:23:19.382Z,16.48
2022-12-03T01:25:48.866Z,17.70
2022-12-03T01:28:16.991Z,18.70
2022-12-03T01:30:58.951Z,16.77
2022-12-03T01:33:27.063Z,18.30
2022-12-03T01:35:55.302Z,19.15
2022-12-03T01:38:23.218Z,19.15
2022-12-03T01:40:54.850Z,18.80
2022-12-03T01:43:22.746Z,19.98
2022-12-03T01:45:51.106Z,20.27
2022-12-03T01:48:19.102Z,19.00
2022-12-03T01:50:47.479Z,20.42
2022-12-03T01:53:18.437Z,23.13
2022-12-03T01:55:48.943Z,20.60
2022-12-03T01:58:25.883Z,20.95
2022-12-03T02:00:53.953Z,19.83
2022-12-03T02:03:27.052Z,19.55
2022-12-03T02:05:56.990Z,19.63
2022-12-03T02:08:29.650Z,20.50
2022-12-03T02:10:59.363Z,19.58
2022-12-03T02:13:29.680Z,19.40
2022-12-03T02:15:58.067Z,18.20
2022-12-03T02:18:26.918Z,19.60
2022-12-03T02:21:02.999Z,20.05
2022-12-03T02:23:39.574Z,19.10
2022-12-03T02:26:10.348Z,22.58
2022-12-03T02:28:38.852Z,20.73
2022-12-03T02:31:07.789Z,23.85
2022-12-03T02:33:36.820Z,23.08
2022-12-03T02:36:05.342Z,26.00
2022-12-03T02:38:35.871Z,24.98
2022-12-03T02:41:08.436Z,23.15
2022-12-03T02:43:36.982Z,25.60
2022-12-03T02:46:06.784Z,25.40
2022-12-03T02:48:37.904Z,32.25
2022-12-03T02:51:10.115Z,32.95
2022-12-03T02:53:42.646Z,34.28
2022-12-03T02:56:13.567Z,34.60
2022-12-03T02:58:44.933Z,34.67
2022-12-03T03:01:14.532Z,42.33
2022-12-03T03:03:43.162Z,46.38
2022-12-03T03:06:11.438Z,52.60
2022-12-03T03:08:41.630Z,49.97
2022-12-03T03:11:10.217Z,44.67
2022-12-03T03:13:39.232Z,47.65
2022-12-03T03:16:09.884Z,53.97
2022-12-03T03:18:38.561Z,56.17
2022-12-03T03:21:06.868Z,53.13
2022-12-03T03:23:35.338Z,58.17
2022-12-03T03:26:06.071Z,61.05
2022-12-03T03:28:37.230Z,66.00
2022-12-03T03:31:07.710Z,61.28
2022-12-03T03:33:38.683Z,54.83
2022-12-03T03:36:08.041Z,52.45
2022-12-03T03:38:36.664Z,56.72
2022-12-03T03:41:07.232Z,63.90
2022-12-03T03:43:38.309Z,63.30
2022-12-03T03:46:08.088Z,65.43
2022-12-03T03:48:38.027Z,68.25
2022-12-03T03:51:09.575Z,63.17
2022-12-03T03:53:38.896Z,61.58
2022-12-03T03:56:07.685Z,63.42
2022-12-03T03:58:36.173Z,58.65
2022-12-03T04:01:04.693Z,61.85
2022-12-03T04:03:33.063Z,57.97
2022-12-03T04:06:02.631Z,57.42
2022-12-03T04:08:30.796Z,67.80
2022-12-03T04:11:15.957Z,62.83
2022-12-03T04:13:44.186Z,63.40
2022-12-03T04:16:12.261Z,68.70
2022-12-03T04:18:46.210Z,67.88
2022-12-03T04:21:50.140Z,71.45
2022-12-03T04:24:18.226Z,68.70
2022-12-03T04:27:04.027Z,67.70
2022-12-03T04:29:32.375Z,65.15
2022-12-03T04:32:17.801Z,68.03
2022-12-03T04:35:03.269Z,58.70
2022-12-03T04:37:32.858Z,56.65
2022-12-03T04:40:00.789Z,58.28
2022-12-03T04:42:28.740Z,58.88
2022-12-03T04:44:58.494Z,70.20
2022-12-03T04:47:26.652Z,73.47
2022-12-03T04:49:54.536Z,66.38
2022-12-03T04:52:22.553Z,68.68
2022-12-03T04:54:52.184Z,65.28
2022-12-03T04:57:20.392Z,67.15
2022-12-03T04:59:48.351Z,66.03
2022-12-03T05:02:16.437Z,59.60
2022-12-03T05:04:44.643Z,55.45
2022-12-03T05:07:12.793Z,32.00
2022-12-03T05:09:40.716Z,35.35
2022-12-03T05:12:10.087Z,35.58
2022-12-03T05:14:38.190Z,43.20
2022-12-03T05:17:06.466Z,56.25
2022-12-03T05:19:51.714Z,68.38
2022-12-03T05:22:19.746Z,71.82
2022-12-03T05:24:47.750Z,72.45
2022-12-03T05:27:23.172Z,73.88
2022-12-03T05:29:52.190Z,74.55
2022-12-03T05:32:20.379Z,74.45
2022-12-03T05:34:48.371Z,70.15
2022-12-03T05:37:16.537Z,69.35
2022-12-03T05:39:44.753Z,72.78
2022-12-03T05:42:30.200Z,78.43
2022-12-03T05:45:00.005Z,74.40
2022-12-03T05:47:27.886Z,75.55
2022-12-03T05:49:55.943Z,85.38
2022-12-03T05:52:24.105Z,78.60
2022-12-03T05:54:52.427Z,80.95
2022-12-03T05:57:20.940Z,83.03
2022-12-03T05:59:49.018Z,88.85
2022-12-03T06:02:18.575Z,95.32
2022-12-03T06:04:46.678Z,84.55
2022-12-03T06:07:14.877Z,84.05
2022-12-03T06:09:43.183Z,81.00
2022-12-03T06:12:11.197Z,83.22
2022-12-03T06:14:39.388Z,80.38
2022-12-03T06:17:07.289Z,83.78
2022-12-03T06:19:36.833Z,79.32
2022-12-03T06:22:04.972Z,80.28
2022-12-03T06:24:32.903Z,70.10
2022-12-03T06:27:01.029Z,71.25
2022-12-03T06:29:28.979Z,76.43
2022-12-03T06:31:57.062Z,81.78
2022-12-03T06:34:24.972Z,80.50
2022-12-03T06:36:54.277Z,84.75
2022-12-03T06:39:22.666Z,88.55
2022-12-03T06:41:50.853Z,86.55
2022-12-03T06:44:18.738Z,82.15
2022-12-03T06:46:46.964Z,85.68
2022-12-03T06:49:15.232Z,82.60
2022-12-03T06:51:43.098Z,83.53
2022-12-03T06:54:12.333Z,74.95
2022-12-03T06:56:45.155Z,76.95
2022-12-03T06:59:13.941Z,72.20
2022-12-03T07:01:41.931Z,57.78
2022-12-03T07:04:10.236Z,65.22
2022-12-03T07:06:38.149Z,61.38
2022-12-03T07:09:06.262Z,66.85
2022-12-03T07:11:40.463Z,68.50
2022-12-03T07:14:11.354Z,78.50
2022-12-03T07:16:43.482Z,79.38
2022-12-03T07:19:12.314Z,82.68
2022-12-03T07:21:40.527Z,86.82
2022-12-03T07:24:08.976Z,65.88
2022-12-03T07:26:38.781Z,92.80
2022-12-03T07:29:06.930Z,77.45
2022-12-03T07:31:35.107Z,79.63
2022-12-03T07:34:03.596Z,77.20
2022-12-03T07:36:31.740Z,72.32
2022-12-03T07:39:00.442Z,83.82
2022-12-03T07:41:28.616Z,95.15
2022-12-03T07:43:58.692Z,98.18
2022-12-03T07:46:27.161Z,101.97
2022-12-03T07:48:55.743Z,101.13
2022-12-03T07:51:27.491Z,89.25
2022-12-03T07:54:00.012Z,84.85
2022-12-03T07:56:28.046Z,95.63
2022-12-03T07:58:57.801Z,90.45
2022-12-03T08:01:26.282Z,86.35
2022-12-03T08:03:54.627Z,93.10
2022-12-03T08:06:23.104Z,86.25
2022-12-03T08:08:55.850Z,76.25
2022-12-03T08:11:27.403Z,81.82
2022-12-03T08:14:02.855Z,85.00
2022-12-03T08:16:34.015Z,90.20
2022-12-03T08:19:10.744Z,94.82
2022-12-03T08:21:41.964Z,92.28
2022-12-03T08:24:19.412Z,96.80
2022-12-03T08:26:55.089Z,85.88
2022-12-03T08:29:29.519Z,91.50
2022-12-03T08:32:01.655Z,87.03
2022-12-03T08:34:34.811Z,90.25
2022-12-03T08:37:13.788Z,85.57
2022-12-03T08:39:49.179Z,83.07
2022-12-03T08:42:40.914Z,82.97
2022-12-03T08:45:42.793Z,87.13
2022-12-03T08:48:33.623Z,88.70
2022-12-03T08:51:05.356Z,84.78
2022-12-03T08:53:37.233Z,80.13
2022-12-03T08:56:14.392Z,82.85
2022-12-03T08:58:45.189Z,79.63
2022-12-03T09:01:33.880Z,91.65
2022-12-03T09:04:25.127Z,96.68
2022-12-03T09:06:54.116Z,89.50
2022-12-03T09:09:23.320Z,86.35
2022-12-03T09:11:51.928Z,80.57
2022-12-03T09:14:22.842Z,75.13
2022-12-03T09:16:55.922Z,73.90
2022-12-03T09:19:25.165Z,72.90
2022-12-03T09:21:53.443Z,64.43
2022-12-03T09:24:21.412Z,49.25
2022-12-03T09:26:49.615Z,24.98
2022-12-03T09:29:17.635Z,40.47
2022-12-03T09:31:45.673Z,39.85
2022-12-03T09:34:15.695Z,31.27
2022-12-03T09:36:44.035Z,32.72
2022-12-03T09:39:12.360Z,37.03
2022-12-03T09:41:40.723Z,33.60
2022-12-03T09:44:13.938Z,38.65
2022-12-03T09:46:47.000Z,36.40
2022-12-03T09:49:19.839Z,47.25
2022-12-03T09:51:48.436Z,59.55
2022-12-03T09:54:23.280Z,60.28
2022-12-03T09:56:51.873Z,60.28
2022-12-03T09:59:19.949Z,57.72
2022-12-03T10:01:48.080Z,56.35
2022-12-03T10:04:17.772Z,42.45
2022-12-03T10:06:46.402Z,39.38
2022-12-03T10:09:18.147Z,44.63
2022-12-03T10:11:46.545Z,42.80
2022-12-03T10:14:16.072Z,52.05
2022-12-03T10:16:44.878Z,47.50
2022-12-03T10:19:20.705Z,58.28
2022-12-03T10:21:48.877Z,55.08
2022-12-03T10:24:26.945Z,56.03
2022-12-03T10:26:57.411Z,56.88
2022-12-03T10:29:33.334Z,67.28
2022-12-03T10:32:04.313Z,64.28
2022-12-03T10:34:36.278Z,72.22
2022-12-03T10:37:14.285Z,71.82
2022-12-03T10:39:58.250Z,73.25
2022-12-03T10:42:26.958Z,80.25
2022-12-03T10:45:20.221Z,80.93
2022-12-03T10:48:06.052Z,76.97
2022-12-03T10:50:36.698Z,72.95
2022-12-03T10:53:05.349Z,73.25
2022-12-03T10:55:40.111Z,71.32
2022-12-03T10:58:17.404Z,75.15
2022-12-03T11:00:45.390Z,72.80
2022-12-03T11:03:19.639Z,69.78
2022-12-03T11:05:52.808Z,63.40
2022-12-03T11:08:22.869Z,69.28
2022-12-03T11:10:59.467Z,60.63
2022-12-03T11:13:52.670Z,56.97
2022-12-03T11:17:09.287Z,54.00
2022-12-03T11:19:52.200Z,54.35
2022-12-03T11:22:47.019Z,49.58
2022-12-03T11:25:50.363Z,40.15
2022-12-03T11:28:39.538Z,36.15
2022-12-03T11:31:15.210Z,36.33
2022-12-03T11:33:44.705Z,46.15
2022-12-03T11:36:36.466Z,47.80
2022-12-03T11:39:10.676Z,50.92
2022-12-03T11:41:38.832Z,49.90
2022-12-03T11:44:38.294Z,48.58
2022-12-03T11:47:16.210Z,46.58
2022-12-03T11:49:49.040Z,40.38
2022-12-03T11:52:26.562Z,46.75
2022-12-03T11:55:01.397Z,42.45
2022-12-03T11:57:36.762Z,43.50
2022-12-03T12:00:19.994Z,43.33
2022-12-03T12:02:49.389Z,35.95
2022-12-03T12:05:20.928Z,34.58
2022-12-03T12:07:50.500Z,46.10
2022-12-03T12:10:52.837Z,52.53
2022-12-03T12:13:50.622Z,53.45
2022-12-03T12:16:37.443Z,56.75
2022-12-03T12:19:36.911Z,56.60
2022-12-03T12:22:30.463Z,60.03
2022-12-03T12:24:59.674Z,62.95
2022-12-03T12:27:37.531Z,57.35
2022-12-03T12:30:07.812Z,51.63
2022-12-03T12:32:43.314Z,101.97
2022-12-03T12:35:18.550Z,100.70
2022-12-03T12:37:56.845Z,97.68
2022-12-03T12:40:29.749Z,100.22
2022-12-03T12:43:05.410Z,102.43
2022-12-03T12:45:41.212Z,95.80
2022-12-03T12:48:17.927Z,96.00
2022-12-03T12:50:47.601Z,93.28
2022-12-03T12:53:23.545Z,97.78
2022-12-03T12:55:57.768Z,99.72
2022-12-03T12:58:29.979Z,96.78
2022-12-03T13:01:00.434Z,94.82
2022-12-03T13:03:33.931Z,92.18
2022-12-03T13:06:03.906Z,96.35
2022-12-03T13:08:34.138Z,90.72
2022-12-03T13:11:03.773Z,85.93
2022-12-03T13:13:43.746Z,87.18
2022-12-03T13:16:18.345Z,79.50
2022-12-03T13:18:49.038Z,78.38
2022-12-03T13:21:24.631Z,72.35
2022-12-03T13:23:54.474Z,77.78
2022-12-03T13:26:38.655Z,78.47
2022-12-03T13:29:15.451Z,79.03
2022-12-03T13:31:50.383Z,79.68
2022-12-03T13:34:22.628Z,84.95
2022-12-03T13:36:57.683Z,87.28
2022-12-03T13:39:30.949Z,90.80
2022-12-03T13:42:30.996Z,90.63
2022-12-03T13:45:03.206Z,19.65
2022-12-03T13:47:31.475Z,20.50
2022-12-03T13:50:04.717Z,19.38
2022-12-03T13:52:36.343Z,19.80
2022-12-03T13:55:06.799Z,20.50
2022-12-03T13:57:35.043Z,20.17
2022-12-03T14:00:06.062Z,19.13
2022-12-03T14:02:34.335Z,19.48
2022-12-03T14:05:03.296Z,20.70
2022-12-03T14:07:31.304Z,19.92
2022-12-03T14:09:59.583Z,21.83
2022-12-03T14:12:27.494Z,20.25
2022-12-03T14:14:55.780Z,19.35
2022-12-03T14:17:25.172Z,20.15
2022-12-03T14:19:53.269Z,20.83
2022-12-03T14:22:23.592Z,19.13
2022-12-03T14:24:51.896Z,18.45
2022-12-03T14:27:20.436Z,19.08
2022-12-03T14:29:49.300Z,20.45
2022-12-03T14:32:17.471Z,21.15
2022-12-03T14:34:47.057Z,19.77
2022-12-03T14:37:15.852Z,20.45
2022-12-03T14:39:43.884Z,20.67
2022-12-03T14:42:14.708Z,20.45
2022-12-03T14:44:43.814Z,17.58
2022-12-03T14:47:12.358Z,16.92
2022-12-03T14:49:40.730Z,15.13
2022-12-03T14:52:12.539Z,15.73
2022-12-03T14:54:42.671Z,19.90
2022-12-03T14:57:12.877Z,16.58
2022-12-03T14:59:42.118Z,18.25
2022-12-03T15:02:11.473Z,16.08
2022-12-03T15:04:40.495Z,16.20
2022-12-03T15:07:13.037Z,17.38
2022-12-03T15:09:41.060Z,19.10
2022-12-03T15:12:09.617Z,16.00
2022-12-03T15:14:37.685Z,15.95
2022-12-03T15:17:05.838Z,16.38
2022-12-03T15:19:34.120Z,15.30
2022-12-03T15:22:02.295Z,17.10
2022-12-03T15:24:31.927Z,16.05
2022-12-03T15:27:00.112Z,15.38
2022-12-03T15:29:28.118Z,14.27
2022-12-03T15:31:56.267Z,14.38
2022-12-03T15:34:24.232Z,15.63
2022-12-03T15:36:53.261Z,15.38
2022-12-03T15:39:22.625Z,15.70
2022-12-03T15:41:51.906Z,15.07
2022-12-03T15:44:19.727Z,15.02
2022-12-03T15:46:47.652Z,16.75
2022-12-03T15:49:15.819Z,15.73
2022-12-03T15:51:45.668Z,17.40
2022-12-03T15:54:13.522Z,14.32
2022-12-03T15:56:41.649Z,15.73
2022-12-03T15:59:10.826Z,15.27
2022-12-03T16:01:39.115Z,15.38
2022-12-03T16:04:07.266Z,15.93
2022-12-03T16:06:35.138Z,17.50
2022-12-03T16:09:03.049Z,16.80
2022-12-03T16:11:30.993Z,18.92
2022-12-03T16:13:59.199Z,16.17
2022-12-03T16:16:28.590Z,17.60
2022-12-03T16:18:56.546Z,18.98
2022-12-03T16:21:27.040Z,16.20
2022-12-03T16:23:56.077Z,18.17
2022-12-03T16:26:26.735Z,20.23
2022-12-03T16:28:54.858Z,17.50
2022-12-03T16:31:22.877Z,18.55
2022-12-03T16:33:52.319Z,22.23
2022-12-03T16:36:20.260Z,19.20
2022-12-03T16:38:48.306Z,19.65
2022-12-03T16:41:16.301Z,18.27
2022-12-03T16:43:47.426Z,19.15
2022-12-03T16:46:25.804Z,23.00
2022-12-03T16:48:57.927Z,28.80
2022-12-03T16:51:27.294Z,24.23
2022-12-03T16:53:55.804Z,23.13
2022-12-03T16:56:24.080Z,21.80
2022-12-03T16:58:51.955Z,23.88
2022-12-03T17:01:20.208Z,24.65
2022-12-03T17:03:48.295Z,23.02
2022-12-03T17:06:17.643Z,24.80
2022-12-03T17:08:49.376Z,21.52
2022-12-03T17:11:18.861Z,23.55
2022-12-03T17:13:47.095Z,25.63
2022-12-03T17:16:15.440Z,23.95
2022-12-03T17:18:43.778Z,26.15
2022-12-03T17:21:11.884Z,26.10
2022-12-03T17:23:41.217Z,22.02
2022-12-03T17:26:09.169Z,22.92
2022-12-03T17:28:37.116Z,21.08
2022-12-03T17:31:07.855Z,20.15
2022-12-03T17:33:35.906Z,18.00
2022-12-03T17:36:04.408Z,20.55
2022-12-03T17:38:39.418Z,20.08
2022-12-03T17:41:11.344Z,21.33
2022-12-03T17:43:39.585Z,21.75
2022-12-03T17:46:07.869Z,22.35
2022-12-03T17:48:36.476Z,22.13
2022-12-03T17:51:04.535Z,22.42
2022-12-03T17:53:32.552Z,23.83
2022-12-03T17:56:00.447Z,24.40
2022-12-03T17:58:29.923Z,23.80
2022-12-03T18:01:02.455Z,23.20
2022-12-03T18:03:31.258Z,22.90
2022-12-03T18:05:59.566Z,21.13
2022-12-03T18:08:27.748Z,24.98
2022-12-03T18:10:55.823Z,26.05
2022-12-03T18:13:23.872Z,26.95
2022-12-03T18:15:54.488Z,28.15
2022-12-03T18:18:22.599Z,30.00
2022-12-03T18:21:05.850Z,25.45
2022-12-03T18:23:36.847Z,23.60
2022-12-03T18:26:05.198Z,25.92
2022-12-03T18:28:33.303Z,24.30
2022-12-03T18:31:02.741Z,26.88
2022-12-03T18:33:30.716Z,30.88
2022-12-03T18:35:59.404Z,26.85
2022-12-03T18:38:34.317Z,28.10
2022-12-03T18:41:02.162Z,29.27
2022-12-03T18:43:36.112Z,26.33
2022-12-03T18:46:15.949Z,26.00
2022-12-03T18:48:53.316Z,27.95
2022-12-03T18:51:24.035Z,26.98
2022-12-03T18:53:52.971Z,27.08
2022-12-03T18:56:20.823Z,27.60
2022-12-03T18:58:48.734Z,27.65
2022-12-03T19:01:20.463Z,25.50
2022-12-03T19:03:48.833Z,27.75
2022-12-03T19:06:19.164Z,27.38
2022-12-03T19:08:48.326Z,25.30
2022-12-03T19:11:16.503Z,22.50
2022-12-03T19:13:44.451Z,25.05
2022-12-03T19:16:13.406Z,25.13
2022-12-03T19:18:42.686Z,26.77
2022-12-03T19:21:12.707Z,29.13
2022-12-03T19:23:41.386Z,31.50
2022-12-03T19:26:13.121Z,31.92
2022-12-03T19:28:42.517Z,33.38
2022-12-03T19:31:13.227Z,32.90
2022-12-03T19:33:43.050Z,42.53
2022-12-03T19:36:21.251Z,38.78
2022-12-03T19:38:55.185Z,31.85
2022-12-03T19:41:26.722Z,31.60
2022-12-03T19:43:56.649Z,35.90
2022-12-03T19:46:25.818Z,35.88
2022-12-03T19:48:56.093Z,34.47
2022-12-03T19:51:34.620Z,30.20
2022-12-03T19:54:03.466Z,28.73
2022-12-03T19:56:31.622Z,28.50
2022-12-03T19:59:00.139Z,30.85
2022-12-03T20:01:30.000Z,29.50
2022-12-03T20:04:01.334Z,32.70
2022-12-03T20:06:31.038Z,28.75
2022-12-03T20:09:00.663Z,29.20
2022-12-03T20:11:30.566Z,27.10
2022-12-03T20:14:00.088Z,26.80
2022-12-03T20:16:31.495Z,30.90
2022-12-03T20:19:02.397Z,26.63
2022-12-03T20:21:32.408Z,23.70
2022-12-03T20:24:00.761Z,23.67
2022-12-03T20:26:29.697Z,24.10
2022-12-03T20:28:58.353Z,25.30
2022-12-03T20:31:28.551Z,25.30
2022-12-03T20:33:58.755Z,25.73
2022-12-03T20:36:30.248Z,24.45
2022-12-03T20:39:00.005Z,25.23
2022-12-03T20:41:28.762Z,25.48
2022-12-03T20:43:57.146Z,25.70
2022-12-03T20:46:27.271Z,23.42
2022-12-03T20:48:56.250Z,27.00
2022-12-03T20:51:25.591Z,24.35
2022-12-03T20:53:55.528Z,25.10
2022-12-03T20:56:26.100Z,23.73
2022-12-03T20:58:54.547Z,22.67
2022-12-03T21:01:25.041Z,25.17
2022-12-03T21:03:54.187Z,23.27
2022-12-03T21:06:23.469Z,20.33
2022-12-03T21:08:53.169Z,22.92
2022-12-03T21:11:25.761Z,22.02
2022-12-03T21:13:55.068Z,24.05
2022-12-03T21:16:52.069Z,23.15
2022-12-03T21:19:13.648Z,22.77
2022-12-03T21:21:41.768Z,22.85
2022-12-03T21:24:09.648Z,24.90
2022-12-03T21:26:39.148Z,23.70
2022-12-03T21:29:07.381Z,24.83
2022-12-03T21:31:37.350Z,24.27
2022-12-03T21:34:05.599Z,22.67
2022-12-03T21:36:33.598Z,22.98
2022-12-03T21:39:01.658Z,21.15
2022-12-03T21:41:29.599Z,21.30
2022-12-03T21:43:58.934Z,23.52
2022-12-03T21:47:12.137Z,23.33
2022-12-03T21:49:15.073Z,24.45
2022-12-03T21:51:42.942Z,21.75
2022-12-03T21:54:10.781Z,23.42
2022-12-03T21:56:38.873Z,22.20
2022-12-03T21:59:08.110Z,20.80
2022-12-03T22:01:35.976Z,22.25
2022-12-03T22:04:03.890Z,21.77
2022-12-03T22:06:31.800Z,23.48
2022-12-03T22:08:59.687Z,23.02
2022-12-03T22:11:27.580Z,24.02
2022-12-03T22:13:57.169Z,23.15
2022-12-03T22:16:26.432Z,21.58
2022-12-03T22:18:55.502Z,25.83
2022-12-03T22:21:24.602Z,25.23
2022-12-03T22:23:52.894Z,23.95
2022-12-03T22:26:20.779Z,27.75
2022-12-03T22:28:50.172Z,22.90
2022-12-03T22:31:18.914Z,21.98
2022-12-03T22:33:48.620Z,25.08
2022-12-03T22:36:21.352Z,23.95
2022-12-03T22:38:52.757Z,23.67
2022-12-03T22:41:21.242Z,24.10
2022-12-03T22:43:49.891Z,24.80
2022-12-03T22:46:18.477Z,29.45
2022-12-03T22:48:49.199Z,24.20
2022-12-03T22:51:20.161Z,25.17
2022-12-03T22:53:48.584Z,20.75
2022-12-03T22:56:17.364Z,25.60
2022-12-03T22:58:45.748Z,23.00
2022-12-03T23:01:22.385Z,24.70
2022-12-03T23:03:51.955Z,23.65
2022-12-03T23:06:21.203Z,21.38
2022-12-03T23:08:49.802Z,22.50
2022-12-03T23:11:20.736Z,23.30
2022-12-03T23:13:48.942Z,20.52
2022-12-03T23:16:19.401Z,23.85
2022-12-03T23:18:47.547Z,22.65
2022-12-03T23:21:20.728Z,22.40
2022-12-03T23:23:52.126Z,23.85
2022-12-03T23:26:19.982Z,23.33
2022-12-03T23:28:48.722Z,22.63
2022-12-03T23:31:20.086Z,19.23
2022-12-03T23:33:48.796Z,23.73
2022-12-03T23:36:18.660Z,23.92
2022-12-03T23:38:46.951Z,20.90
2022-12-03T23:41:16.710Z,21.85
2022-12-03T23:43:44.957Z,25.00
2022-12-03T23:46:15.190Z,24.33
2022-12-03T23:48:43.538Z,22.88
2022-12-03T23:51:13.523Z,23.65
2022-12-03T23:53:43.340Z,24.65
2022-12-03T23:56:13.671Z,25.42
2022-12-03T23:58:41.838Z,21.65
